This is the latest recevied weather packets stored in our database for station/object EA2BK-11. If no packets are shown the sender has not sent any weather packets the latest 10 day(s).
| Time | Temp. | Humidity | Pressure | Rain* | Wind** | Luminosity | Snow |
|---|---|---|---|---|---|---|---|
| 1777581053 | 20.56° C | 43% | 948 hPa | - | - | - | - |
| 1777580148 | 20.56° C | 41% | 948 hPa | - | - | - | - |
| 1777579243 | 21.11° C | 41% | 948 hPa | - | - | - | - |
| 1777578338 | 21.11° C | 40% | 947 hPa | - | - | - | - |
| 1777577432 | 21.67° C | 40% | 947 hPa | - | - | - | - |
| 1777576527 | 22.78° C | 39% | 947 hPa | - | - | - | - |
| 1777575622 | 23.33° C | 40% | 947 hPa | - | - | - | - |
| 1777574717 | 24.44° C | 38% | 947 hPa | - | - | - | - |
| 1777573812 | 26.11° C | 34% | 947 hPa | - | - | - | - |
| 1777572907 | 27.78° C | 31% | 947 hPa | - | - | - | - |
| 1777572001 | 28.89° C | 29% | 947 hPa | - | - | - | - |
| 1777570191 | 28.33° C | 27% | 947 hPa | - | - | - | - |
| 1777569286 | 31.11° C | 24% | 947 hPa | - | - | - | - |
| 1777568381 | 31.67° C | 24% | 947 hPa | - | - | - | - |
| 1777567475 | 29.44° C | 27% | 947 hPa | - | - | - | - |
| 1777566570 | 30.56° C | 26% | 947 hPa | - | - | - | - |
| 1777565665 | 31.67° C | 25% | 946 hPa | - | - | - | - |
| 1777564760 | 35° C | 21% | 946 hPa | - | - | - | - |
| 1777563855 | 36.67° C | 19% | 946 hPa | - | - | - | - |
| 1777562950 | 31.11° C | 25% | 946 hPa | - | - | - | - |
| 1777562044 | 28.89° C | 27% | 946 hPa | - | - | - | - |
| 1777561139 | 29.44° C | 26% | 947 hPa | - | - | - | - |
| 1777560234 | 29.44° C | 26% | 947 hPa | - | - | - | - |
| 1777559329 | 27.78° C | 26% | 946 hPa | - | - | - | - |
| 1777558424 | 27.22° C | 27% | 947 hPa | - | - | - | - |
* Rain since midnight (hover to see other rain measurements)
** Current wind speed in m/s (hover to see current wind gust speed)